createdAt,value
2023-01-11T00:01:37.790Z,72.65
2023-01-11T00:04:04.675Z,72.37
2023-01-11T00:06:31.296Z,71.56
2023-01-11T00:08:58.681Z,71.15
2023-01-11T00:11:50.536Z,71.03
2023-01-11T00:15:01.286Z,72.34
2023-01-11T00:17:29.317Z,72.13
2023-01-11T00:19:55.858Z,71.65
2023-01-11T00:22:22.401Z,72.12
2023-01-11T00:24:48.941Z,72.66
2023-01-11T00:27:15.576Z,72.76
2023-01-11T00:32:44.579Z,71.79
2023-01-11T00:35:13.240Z,72.38
2023-01-11T00:37:40.273Z,71.80
2023-01-11T00:40:26.425Z,72.42
2023-01-11T00:47:01.981Z,73.00
2023-01-11T00:57:14.267Z,74.65
2023-01-11T01:02:29.665Z,74.70
2023-01-11T01:04:56.259Z,74.90
2023-01-11T01:07:23.434Z,75.03
2023-01-11T01:09:49.970Z,75.55
2023-01-11T01:12:36.950Z,75.24
2023-01-11T01:17:38.837Z,73.77
2023-01-11T01:20:06.177Z,74.51
2023-01-11T01:22:32.821Z,74.76
2023-01-11T01:24:59.366Z,75.29
2023-01-11T01:27:26.525Z,74.74
2023-01-11T01:30:09.276Z,75.21
2023-01-11T01:33:06.650Z,74.39
2023-01-11T01:35:58.208Z,73.58
2023-01-11T01:46:10.534Z,73.48
2023-01-11T01:48:38.695Z,73.75
2023-01-11T01:51:07.954Z,73.66
2023-01-11T01:53:38.214Z,73.12
2023-01-11T01:56:18.333Z,72.98
2023-01-11T01:58:53.375Z,73.89
2023-01-11T02:01:39.204Z,72.72
2023-01-11T02:07:19.735Z,73.32
2023-01-11T02:10:13.919Z,73.77
2023-01-11T02:12:50.319Z,74.19
2023-01-11T02:15:19.155Z,73.58
2023-01-11T02:17:45.723Z,73.15
2023-01-11T02:20:56.052Z,73.36
2023-01-11T02:24:08.334Z,73.07
2023-01-11T02:26:49.379Z,73.20
2023-01-11T02:29:52.698Z,72.77
2023-01-11T02:57:48.122Z,71.67
2023-01-11T03:00:18.137Z,71.16
2023-01-11T03:02:45.093Z,70.93
2023-01-11T03:05:13.637Z,71.72
2023-01-11T03:08:00.431Z,70.40
2023-01-11T03:10:56.872Z,71.02
2023-01-11T03:18:53.446Z,69.26
2023-01-11T03:21:48.873Z,69.01
2023-01-11T03:25:05.291Z,68.63
2023-01-11T03:31:37.313Z,68.78
2023-01-11T03:34:40.340Z,68.57
2023-01-11T03:37:12.855Z,68.99
2023-01-11T03:39:51.182Z,69.69
2023-01-11T03:42:21.683Z,70.14
2023-01-11T03:45:26.708Z,70.81
2023-01-11T03:47:55.075Z,71.62
2023-01-11T03:50:23.354Z,72.22
2023-01-11T03:52:51.492Z,73.52
2023-01-11T04:09:40.431Z,72.79
2023-01-11T04:12:07.254Z,73.08
2023-01-11T04:14:33.834Z,73.19
2023-01-11T04:17:00.554Z,72.99
2023-01-11T04:19:27.136Z,72.52
2023-01-11T04:21:53.707Z,72.38
2023-01-11T04:24:20.460Z,72.68
2023-01-11T04:26:47.362Z,72.14
2023-01-11T04:29:14.021Z,72.29
2023-01-11T04:31:40.639Z,72.49
2023-01-11T04:34:07.526Z,72.94
2023-01-11T04:36:34.143Z,73.82
2023-01-11T04:39:00.921Z,73.82
2023-01-11T04:41:46.017Z,74.17
2023-01-11T04:44:12.634Z,74.06
2023-01-11T04:46:39.188Z,73.09
2023-01-11T04:49:05.747Z,72.58
2023-01-11T04:51:32.298Z,72.50
2023-01-11T04:53:59.945Z,71.40
2023-01-11T04:56:26.534Z,70.63
2023-01-11T04:59:24.137Z,70.12
2023-01-11T05:01:50.718Z,70.02
2023-01-11T05:04:17.356Z,70.31
2023-01-11T05:06:44.072Z,69.83
2023-01-11T05:12:45.912Z,70.09
2023-01-11T05:15:12.876Z,70.51
2023-01-11T05:17:39.485Z,70.69
2023-01-11T05:20:06.368Z,70.63
2023-01-11T05:22:33.042Z,70.33
2023-01-11T05:24:59.608Z,69.50
2023-01-11T05:27:26.317Z,69.43
2023-01-11T05:29:52.870Z,69.51
2023-01-11T05:32:19.541Z,70.32
2023-01-11T05:34:46.079Z,70.66
2023-01-11T05:37:15.289Z,71.71
2023-01-11T05:39:41.870Z,72.93
2023-01-11T05:42:08.586Z,73.85
2023-01-11T05:44:54.649Z,73.68
2023-01-11T05:47:40.598Z,72.49
2023-01-11T05:50:07.391Z,72.26
2023-01-11T05:52:33.964Z,72.14
2023-01-11T05:55:00.522Z,72.73
2023-01-11T06:00:23.081Z,72.56
2023-01-11T06:02:49.738Z,73.66
2023-01-11T06:05:16.556Z,74.21
2023-01-11T06:07:43.144Z,73.96
2023-01-11T06:10:10.449Z,73.93
2023-01-11T06:13:26.671Z,72.70
2023-01-11T06:16:36.227Z,72.90
2023-01-11T06:19:24.851Z,71.99
2023-01-11T06:24:26.767Z,71.64
2023-01-11T06:26:53.642Z,72.36
2023-01-11T06:29:20.577Z,73.14
2023-01-11T06:31:47.198Z,73.17
2023-01-11T06:34:13.749Z,72.44
2023-01-11T06:36:40.395Z,72.14
2023-01-11T06:39:07.208Z,71.98
2023-01-11T06:41:33.830Z,72.83
2023-01-11T06:44:00.381Z,72.61
2023-01-11T06:46:29.064Z,72.64
2023-01-11T06:48:55.868Z,72.78
2023-01-11T06:51:22.520Z,72.34
2023-01-11T06:53:49.109Z,71.87
2023-01-11T06:56:18.937Z,71.35
2023-01-11T06:58:47.137Z,71.23
2023-01-11T07:01:14.385Z,71.94
2023-01-11T07:06:16.706Z,71.47
2023-01-11T07:08:43.300Z,71.31
2023-01-11T07:11:10.675Z,71.45
2023-01-11T07:13:37.287Z,71.51
2023-01-11T07:16:04.089Z,71.84
2023-01-11T07:19:01.539Z,71.88
2023-01-11T07:21:53.221Z,71.88
2023-01-11T07:24:20.427Z,71.52
2023-01-11T07:26:46.963Z,71.41
2023-01-11T07:29:13.740Z,71.22
2023-01-11T07:31:40.315Z,71.32
2023-01-11T07:34:26.286Z,72.17
2023-01-11T07:36:52.840Z,72.37
2023-01-11T07:39:19.442Z,71.89
2023-01-11T07:42:04.771Z,71.54
2023-01-11T07:44:31.369Z,71.28
2023-01-11T07:46:58.275Z,71.62
2023-01-11T07:49:25.015Z,71.48
2023-01-11T07:51:54.198Z,71.55
2023-01-11T07:54:20.878Z,71.31
2023-01-11T07:56:47.509Z,70.91
2023-01-11T07:59:14.077Z,70.50
2023-01-11T08:01:40.660Z,70.10
2023-01-11T08:04:11.929Z,69.99
2023-01-11T08:06:39.291Z,69.64
2023-01-11T08:09:06.621Z,69.38
2023-01-11T08:11:51.719Z,68.96
2023-01-11T08:14:37.163Z,68.74
2023-01-11T08:17:03.899Z,68.67
2023-01-11T08:19:33.108Z,69.14
2023-01-11T08:21:59.788Z,69.61
2023-01-11T08:24:26.964Z,71.89
2023-01-11T08:26:53.540Z,72.42
2023-01-11T08:29:20.286Z,70.80
2023-01-11T08:31:48.141Z,70.20
2023-01-11T08:34:15.036Z,70.11
2023-01-11T08:36:41.674Z,69.74
2023-01-11T08:39:08.384Z,69.85
2023-01-11T08:41:35.158Z,70.18
2023-01-11T08:44:02.134Z,69.60
2023-01-11T08:46:28.724Z,69.52
2023-01-11T08:49:17.005Z,69.73
2023-01-11T08:57:27.522Z,69.37
2023-01-11T08:59:54.095Z,68.59
2023-01-11T09:10:30.852Z,66.98
2023-01-11T09:12:59.771Z,65.78
2023-01-11T09:15:27.764Z,65.43
2023-01-11T09:17:54.680Z,65.34
2023-01-11T09:20:21.756Z,64.85
2023-01-11T09:22:53.024Z,64.36
2023-01-11T09:25:20.560Z,63.25
2023-01-11T09:27:49.008Z,62.61
2023-01-11T09:30:21.908Z,62.65
2023-01-11T09:32:49.901Z,62.33
2023-01-11T09:35:17.974Z,62.23
2023-01-11T09:37:49.145Z,62.13
2023-01-11T09:40:55.232Z,61.95
2023-01-11T09:43:27.459Z,61.26
2023-01-11T09:45:57.935Z,61.28
2023-01-11T09:52:40.055Z,60.38
2023-01-11T09:55:15.502Z,60.05
2023-01-11T09:57:54.341Z,59.85
2023-01-11T10:01:03.365Z,59.79
2023-01-11T10:03:58.263Z,59.92
2023-01-11T10:06:29.873Z,59.86
2023-01-11T10:18:34.382Z,58.71
2023-01-11T10:19:37.568Z,58.35
2023-01-11T10:22:23.407Z,57.24
2023-01-11T10:24:53.753Z,56.85
2023-01-11T10:27:30.881Z,56.30
2023-01-11T10:30:19.101Z,57.74
2023-01-11T10:33:06.567Z,57.16
2023-01-11T10:36:10.520Z,57.14
2023-01-11T10:38:56.591Z,56.98
2023-01-11T10:41:57.449Z,58.87
2023-01-11T10:44:36.929Z,56.32
2023-01-11T10:47:07.539Z,56.14
2023-01-11T10:49:58.895Z,55.46
2023-01-11T10:52:52.090Z,54.90
2023-01-11T10:55:46.663Z,56.36
2023-01-11T10:58:44.289Z,54.57
2023-01-11T11:01:36.609Z,54.33
2023-01-11T11:04:26.014Z,53.77
2023-01-11T11:07:22.328Z,58.48
2023-01-11T11:10:16.923Z,57.46
2023-01-11T11:12:51.039Z,55.46
2023-01-11T11:15:25.781Z,58.06
2023-01-11T11:17:54.126Z,55.27
2023-01-11T11:20:28.781Z,54.65
2023-01-11T11:22:58.550Z,54.37
2023-01-11T11:25:34.057Z,53.32
2023-01-11T11:28:14.745Z,52.38
2023-01-11T11:30:46.920Z,51.96
2023-01-11T11:33:31.157Z,53.80
2023-01-11T11:36:02.201Z,52.73
2023-01-11T11:38:34.849Z,49.94
2023-01-11T11:41:04.579Z,49.59
2023-01-11T11:43:33.349Z,52.17
2023-01-11T11:46:26.601Z,50.51
2023-01-11T11:49:15.724Z,47.39
2023-01-11T11:51:44.653Z,46.83
2023-01-11T11:54:43.296Z,47.97
2023-01-11T11:57:23.858Z,49.37
2023-01-11T12:00:01.124Z,47.90
2023-01-11T12:02:31.554Z,47.64
2023-01-11T12:05:00.662Z,46.86
2023-01-11T12:07:34.419Z,48.81
2023-01-11T12:10:07.292Z,47.11
2023-01-11T12:12:34.576Z,47.42
2023-01-11T12:15:15.342Z,47.43
2023-01-11T12:17:42.899Z,46.70
2023-01-11T12:20:31.152Z,46.66
2023-01-11T12:23:21.567Z,47.21
2023-01-11T12:26:19.012Z,50.37
2023-01-11T12:28:48.603Z,50.10
2023-01-11T12:31:54.281Z,49.25
2023-01-11T12:34:29.949Z,48.75
2023-01-11T12:36:56.452Z,50.46
2023-01-11T12:39:41.987Z,51.80
2023-01-11T12:42:23.632Z,50.84
2023-01-11T12:45:02.117Z,50.10
2023-01-11T12:47:40.614Z,50.90
2023-01-11T12:50:21.319Z,51.86
2023-01-11T12:52:59.282Z,50.52
2023-01-11T12:55:54.847Z,49.84
2023-01-11T12:58:45.542Z,52.12
2023-01-11T13:01:32.821Z,48.28
2023-01-11T13:04:02.117Z,47.52
2023-01-11T13:06:49.785Z,47.55
2023-01-11T13:09:45.667Z,47.41
2023-01-11T13:12:58.478Z,47.82
2023-01-11T13:15:48.947Z,48.33
2023-01-11T13:18:27.272Z,47.31
2023-01-11T13:21:02.158Z,48.01
2023-01-11T13:23:50.213Z,49.50
2023-01-11T13:26:22.957Z,50.50
2023-01-11T13:29:03.598Z,50.41
2023-01-11T13:31:33.616Z,50.92
2023-01-11T13:34:22.315Z,51.12
2023-01-11T13:36:56.931Z,51.59
2023-01-11T13:39:29.715Z,51.95
2023-01-11T13:42:00.551Z,52.15
2023-01-11T13:44:53.600Z,52.79
2023-01-11T13:47:40.229Z,53.06
2023-01-11T13:50:22.551Z,53.17
2023-01-11T13:53:03.495Z,53.13
2023-01-11T13:55:59.447Z,53.13
2023-01-11T13:58:35.601Z,53.45
2023-01-11T14:01:20.891Z,53.44
2023-01-11T14:04:15.712Z,54.27
2023-01-11T14:07:07.925Z,54.60
2023-01-11T14:09:37.350Z,54.63
2023-01-11T14:12:31.049Z,54.36
2023-01-11T14:15:21.799Z,54.69
2023-01-11T14:20:32.870Z,55.47
2023-01-11T14:23:38.523Z,55.74
2023-01-11T14:26:42.453Z,56.70
2023-01-11T14:29:30.804Z,58.01
2023-01-11T14:32:07.168Z,57.91
2023-01-11T14:35:04.732Z,57.57
2023-01-11T14:37:46.347Z,57.58
2023-01-11T14:40:37.229Z,57.92
2023-01-11T14:43:06.381Z,58.01
2023-01-11T14:45:46.682Z,58.93
2023-01-11T14:48:42.301Z,59.62
2023-01-11T14:59:24.317Z,60.45
2023-01-11T15:02:02.754Z,60.79
2023-01-11T15:04:33.291Z,60.74
2023-01-11T15:07:01.042Z,60.67
2023-01-11T15:09:48.608Z,60.88
2023-01-11T15:14:56.496Z,60.78
2023-01-11T15:17:45.379Z,60.98
2023-01-11T15:20:15.749Z,61.16
2023-01-11T15:25:26.540Z,61.71
2023-01-11T15:27:54.461Z,61.51
2023-01-11T15:30:30.207Z,61.42
2023-01-11T15:33:18.578Z,61.83
2023-01-11T15:35:57.398Z,62.04
2023-01-11T15:38:31.492Z,62.42
2023-01-11T15:41:21.286Z,62.76
2023-01-11T15:44:01.606Z,62.24
2023-01-11T15:47:06.347Z,62.11
2023-01-11T15:49:58.151Z,62.34
2023-01-11T15:52:24.706Z,62.08
2023-01-11T15:55:17.631Z,61.86
2023-01-11T15:57:47.105Z,61.97
2023-01-11T16:00:37.346Z,61.86
2023-01-11T16:05:44.978Z,61.49
2023-01-11T16:08:26.318Z,61.90
2023-01-11T16:14:20.929Z,61.89
2023-01-11T16:35:25.786Z,62.98
2023-01-11T16:40:40.421Z,63.23
2023-01-11T16:43:26.366Z,63.08
2023-01-11T16:45:56.921Z,63.31
2023-01-11T16:48:32.072Z,63.75
2023-01-11T16:51:18.085Z,63.36
2023-01-11T16:56:27.793Z,63.36
2023-01-11T16:59:19.499Z,63.80
2023-01-11T17:02:28.329Z,63.95
2023-01-11T17:04:55.953Z,63.68
2023-01-11T17:07:42.711Z,64.30
2023-01-11T17:10:29.819Z,64.21
2023-01-11T17:13:58.266Z,64.04
2023-01-11T17:19:18.878Z,64.29
2023-01-11T17:30:42.677Z,65.41
2023-01-11T17:38:55.856Z,65.85
2023-01-11T17:48:33.428Z,65.26
2023-01-11T17:53:50.559Z,66.36
2023-01-11T17:56:39.443Z,66.35
2023-01-11T17:59:25.233Z,66.17
2023-01-11T18:02:17.903Z,66.14
2023-01-11T18:07:21.515Z,66.54
2023-01-11T18:12:45.525Z,66.87
2023-01-11T18:15:18.401Z,66.82
2023-01-11T18:17:56.755Z,67.14
2023-01-11T18:20:29.376Z,67.29
2023-01-11T18:23:23.297Z,67.51
2023-01-11T18:25:50.548Z,67.46
2023-01-11T18:31:12.538Z,67.60
2023-01-11T18:53:56.687Z,69.49
2023-01-11T18:56:23.311Z,69.00
2023-01-11T18:58:49.889Z,69.21
2023-01-11T19:01:21.185Z,70.50
2023-01-11T19:12:52.732Z,73.95
2023-01-11T19:15:21.431Z,73.18
2023-01-11T19:17:48.127Z,72.79
2023-01-11T19:20:15.068Z,73.01
2023-01-11T19:22:42.203Z,74.00
2023-01-11T19:25:27.455Z,73.91
2023-01-11T19:27:54.981Z,72.48
2023-01-11T19:30:21.740Z,72.53
2023-01-11T19:32:53.149Z,72.10
2023-01-11T19:35:20.437Z,71.66
2023-01-11T19:37:46.999Z,72.02
2023-01-11T19:40:15.724Z,71.71
2023-01-11T19:42:42.320Z,70.58
2023-01-11T19:45:09.350Z,70.82
2023-01-11T19:47:36.218Z,70.71
2023-01-11T19:50:02.838Z,70.51
2023-01-11T19:52:29.979Z,70.56
2023-01-11T19:54:56.853Z,70.41
2023-01-11T19:57:23.757Z,70.33
2023-01-11T19:59:50.801Z,70.80
2023-01-11T20:02:19.915Z,70.64
2023-01-11T20:04:46.805Z,70.25
2023-01-11T20:07:14.965Z,70.25
2023-01-11T20:09:41.820Z,70.62
2023-01-11T20:12:11.422Z,70.86
2023-01-11T20:14:40.307Z,71.62
2023-01-11T20:17:07.455Z,71.60
2023-01-11T20:19:34.022Z,72.20
2023-01-11T20:22:00.647Z,71.51
2023-01-11T20:24:30.357Z,71.07
2023-01-11T20:26:59.211Z,70.23
2023-01-11T20:29:26.172Z,70.15
2023-01-11T20:31:52.791Z,69.69
2023-01-11T20:34:19.462Z,70.65
2023-01-11T20:36:46.276Z,70.82
2023-01-11T20:39:12.915Z,71.04
2023-01-11T20:41:49.866Z,70.88
2023-01-11T20:44:18.414Z,70.29
2023-01-11T20:46:47.825Z,70.21
2023-01-11T20:49:15.247Z,70.26
2023-01-11T20:51:42.938Z,70.12
2023-01-11T20:54:10.113Z,70.08
2023-01-11T20:56:54.882Z,70.14
2023-01-11T20:59:21.584Z,70.13
2023-01-11T21:01:49.789Z,70.42
2023-01-11T21:04:17.869Z,71.39
2023-01-11T21:07:21.434Z,71.66
2023-01-11T21:10:13.098Z,71.44
2023-01-11T21:12:39.687Z,71.21
2023-01-11T21:15:10.478Z,72.00
2023-01-11T21:17:37.775Z,72.85
2023-01-11T21:20:05.016Z,72.82
2023-01-11T21:25:07.624Z,75.32
2023-01-11T21:27:34.180Z,73.70
2023-01-11T21:30:00.809Z,74.09
2023-01-11T21:32:27.365Z,74.09
2023-01-11T21:34:53.923Z,73.94
2023-01-11T21:37:24.491Z,74.36
2023-01-11T21:39:51.798Z,74.34
2023-01-11T21:45:24.902Z,75.63
2023-01-11T21:47:51.597Z,74.24
2023-01-11T21:50:21.331Z,73.70
2023-01-11T22:03:43.113Z,74.54
2023-01-11T22:06:10.475Z,73.57
2023-01-11T22:08:38.560Z,73.68
2023-01-11T22:11:06.747Z,73.41
2023-01-11T22:13:35.498Z,73.13
2023-01-11T22:18:37.723Z,73.91
2023-01-11T22:21:12.384Z,73.12
2023-01-11T22:23:39.735Z,73.81
2023-01-11T22:26:18.987Z,73.41
2023-01-11T22:29:05.662Z,73.47
2023-01-11T22:35:38.740Z,73.98
2023-01-11T22:38:05.528Z,75.92
2023-01-11T22:40:32.083Z,75.39
2023-01-11T22:42:58.632Z,74.24
2023-01-11T22:45:25.261Z,73.76
2023-01-11T22:48:10.547Z,74.31
2023-01-11T22:50:38.812Z,75.13
2023-01-11T22:53:05.375Z,74.39
2023-01-11T22:55:33.511Z,73.54
2023-01-11T22:58:00.046Z,73.97
2023-01-11T23:00:26.583Z,74.56
2023-01-11T23:02:53.326Z,74.90
2023-01-11T23:05:20.071Z,74.78
2023-01-11T23:07:46.634Z,74.56
2023-01-11T23:10:13.671Z,74.66
2023-01-11T23:16:22.663Z,74.98
2023-01-11T23:18:49.389Z,74.99
2023-01-11T23:21:16.808Z,76.64
2023-01-11T23:23:43.989Z,76.74
2023-01-11T23:26:17.876Z,76.90
2023-01-11T23:28:45.686Z,77.16
2023-01-11T23:31:29.441Z,76.98
2023-01-11T23:33:58.660Z,76.04
2023-01-11T23:36:30.697Z,76.78
2023-01-11T23:38:58.187Z,76.87
2023-01-11T23:45:17.074Z,76.02
2023-01-11T23:47:43.635Z,75.39
2023-01-11T23:50:10.481Z,75.32
2023-01-11T23:52:37.124Z,75.56
2023-01-11T23:55:03.913Z,75.47
2023-01-11T23:57:30.469Z,74.83
